createdAt,value
2022-11-29T00:00:22.957Z,98662.81
2022-11-29T00:03:10.504Z,98662.78
2022-11-29T00:05:38.065Z,98665.41
2022-11-29T00:08:08.188Z,98663.72
2022-11-29T00:10:38.829Z,98667.22
2022-11-29T00:13:05.967Z,98662.03
2022-11-29T00:15:36.993Z,98665.47
2022-11-29T00:18:07.660Z,98670.94
2022-11-29T00:20:35.929Z,98665.75
2022-11-29T00:23:04.207Z,98658.50
2022-11-29T00:25:31.872Z,98648.78
2022-11-29T00:28:02.418Z,98658.50
2022-11-29T00:30:29.793Z,98657.84
2022-11-29T00:32:57.135Z,98666.75
2022-11-29T00:35:24.460Z,98659.78
2022-11-29T00:37:51.888Z,98652.88
2022-11-29T00:40:19.543Z,98660.47
2022-11-29T00:42:47.204Z,98660.41
2022-11-29T00:45:14.699Z,98657.19
2022-11-29T00:47:44.397Z,98658.00
2022-11-29T00:50:11.632Z,98663.34
2022-11-29T00:52:38.779Z,98658.09
2022-11-29T00:55:06.412Z,98661.38
2022-11-29T00:57:33.548Z,98660.56
2022-11-29T01:00:00.353Z,98660.44
2022-11-29T01:02:27.689Z,98669.06
2022-11-29T01:04:55.085Z,98665.81
2022-11-29T01:07:22.568Z,98659.66
2022-11-29T01:09:49.875Z,98666.59
2022-11-29T01:12:17.371Z,98667.34
2022-11-29T01:14:44.972Z,98662.94
2022-11-29T01:17:12.642Z,98671.44
2022-11-29T01:19:39.897Z,98664.50
2022-11-29T01:22:07.463Z,98669.59
2022-11-29T01:24:34.884Z,98666.06
2022-11-29T01:27:02.488Z,98674.94
2022-11-29T01:29:30.003Z,98672.47
2022-11-29T01:31:57.604Z,98678.56
2022-11-29T01:34:25.033Z,98681.25
2022-11-29T01:36:52.591Z,98678.53
2022-11-29T01:39:20.044Z,98678.44
2022-11-29T01:41:47.593Z,98675.06
2022-11-29T01:44:14.849Z,98674.28
2022-11-29T01:46:46.957Z,98685.53
2022-11-29T01:49:31.839Z,98684.84
2022-11-29T01:52:12.196Z,98672.72
2022-11-29T01:54:47.865Z,98682.41
2022-11-29T01:57:19.294Z,98684.13
2022-11-29T01:59:59.029Z,98673.69
2022-11-29T02:02:41.576Z,98680.53
2022-11-29T02:05:10.174Z,98674.34
2022-11-29T02:07:38.398Z,98678.66
2022-11-29T02:10:08.186Z,98678.66
2022-11-29T02:13:07.373Z,98683.06
2022-11-29T02:16:14.569Z,98688.34
2022-11-29T02:19:31.074Z,98683.13
2022-11-29T02:22:41.969Z,98680.56
2022-11-29T02:25:42.848Z,98692.00
2022-11-29T02:28:52.589Z,98685.84
2022-11-29T02:36:00.222Z,98697.94
2022-11-29T02:39:18.201Z,98696.53
2022-11-29T02:42:04.216Z,98702.47
2022-11-29T02:45:26.892Z,98701.63
2022-11-29T02:48:12.552Z,98699.78
2022-11-29T02:51:11.481Z,98704.06
2022-11-29T02:54:07.183Z,98705.84
2022-11-29T02:56:43.566Z,98698.03
2022-11-29T03:00:07.037Z,98701.84
2022-11-29T03:03:08.678Z,98697.66
2022-11-29T03:06:12.021Z,98699.31
2022-11-29T03:09:27.986Z,98703.66
2022-11-29T03:12:41.908Z,98700.28
2022-11-29T03:15:55.584Z,98708.22
2022-11-29T03:19:13.330Z,98711.91
2022-11-29T03:22:15.315Z,98704.88
2022-11-29T03:25:13.047Z,98716.19
2022-11-29T03:28:01.993Z,98715.38
2022-11-29T03:30:38.155Z,98723.03
2022-11-29T03:33:43.661Z,98724.00
2022-11-29T03:36:44.603Z,98719.69
2022-11-29T03:39:21.748Z,98717.97
2022-11-29T03:41:59.136Z,98717.16
2022-11-29T03:44:42.839Z,98715.41
2022-11-29T03:47:22.393Z,98716.31
2022-11-29T03:50:14.587Z,98724.22
2022-11-29T03:53:33.354Z,98716.34
2022-11-29T03:56:05.069Z,98725.25
2022-11-29T03:59:09.440Z,98723.59
2022-11-29T04:01:58.840Z,98722.59
2022-11-29T04:05:00.126Z,98721.63
2022-11-29T04:07:48.678Z,98724.16
2022-11-29T04:11:04.015Z,98727.63
2022-11-29T04:14:14.832Z,98725.13
2022-11-29T04:16:53.692Z,98722.59
2022-11-29T04:19:52.545Z,98727.59
2022-11-29T04:23:04.833Z,98727.44
2022-11-29T04:26:03.744Z,98732.63
2022-11-29T04:29:08.985Z,98726.41
2022-11-29T04:32:37.654Z,98736.75
2022-11-29T04:36:09.794Z,98732.31
2022-11-29T04:39:22.983Z,98736.84
2022-11-29T04:42:37.313Z,98731.47
2022-11-29T04:45:32.581Z,98737.56
2022-11-29T04:48:38.256Z,98741.09
2022-11-29T04:51:43.509Z,98738.59
2022-11-29T04:54:21.393Z,98737.69
2022-11-29T04:56:58.861Z,98742.06
2022-11-29T04:59:43.804Z,98744.56
2022-11-29T05:02:33.195Z,98749.94
2022-11-29T05:05:47.535Z,98750.91
2022-11-29T05:09:06.236Z,98743.13
2022-11-29T05:11:38.690Z,98744.88
2022-11-29T05:14:35.791Z,98753.56
2022-11-29T05:17:21.252Z,98758.75
2022-11-29T05:20:20.684Z,98759.66
2022-11-29T05:23:26.329Z,98761.19
2022-11-29T05:26:20.225Z,98763.13
2022-11-29T05:29:01.356Z,98768.38
2022-11-29T05:32:19.776Z,98772.63
2022-11-29T05:35:03.200Z,98771.75
2022-11-29T05:37:43.942Z,98769.16
2022-11-29T05:41:21.116Z,98770.84
2022-11-29T05:44:07.560Z,98772.63
2022-11-29T05:46:58.831Z,98776.00
2022-11-29T05:49:40.569Z,98770.16
2022-11-29T05:52:31.275Z,98769.50
2022-11-29T05:55:14.381Z,98771.19
2022-11-29T05:58:02.220Z,98777.16
2022-11-29T06:01:15.465Z,98778.09
2022-11-29T06:04:24.889Z,98784.22
2022-11-29T06:07:11.814Z,98790.31
2022-11-29T06:09:51.387Z,98792.03
2022-11-29T06:12:25.358Z,98788.47
2022-11-29T06:15:30.682Z,98797.19
2022-11-29T06:19:17.272Z,98806.75
2022-11-29T06:22:24.614Z,98803.34
2022-11-29T06:25:34.288Z,98805.03
2022-11-29T06:28:35.164Z,98808.50
2022-11-29T06:31:40.216Z,98808.72
2022-11-29T06:34:18.230Z,98814.09
2022-11-29T06:37:16.399Z,98814.72
2022-11-29T06:39:47.584Z,98820.81
2022-11-29T06:42:18.516Z,98817.28
2022-11-29T06:44:48.077Z,98820.81
2022-11-29T06:47:43.525Z,98819.03
2022-11-29T06:50:53.483Z,98819.84
2022-11-29T06:53:34.909Z,98825.00
2022-11-29T06:56:08.715Z,98829.31
2022-11-29T06:59:08.186Z,98831.84
2022-11-29T07:02:21.363Z,98838.75
2022-11-29T07:05:28.109Z,98839.50
2022-11-29T07:08:02.250Z,98839.44
2022-11-29T07:10:33.540Z,98846.44
2022-11-29T07:13:01.234Z,98844.66
2022-11-29T07:15:51.106Z,98837.69
2022-11-29T07:18:57.165Z,98846.31
2022-11-29T07:22:08.289Z,98842.91
2022-11-29T07:25:20.458Z,98843.66
2022-11-29T07:28:26.351Z,98845.69
2022-11-29T07:31:19.626Z,98841.47
2022-11-29T07:34:05.643Z,98844.06
2022-11-29T07:37:00.992Z,98854.56
2022-11-29T07:40:02.942Z,98850.91
2022-11-29T07:43:11.870Z,98860.94
2022-11-29T07:45:41.145Z,98857.84
2022-11-29T07:48:12.496Z,98858.78
2022-11-29T07:50:41.097Z,98863.69
2022-11-29T07:53:17.154Z,98869.63
2022-11-29T07:55:56.841Z,98870.38
2022-11-29T07:58:25.691Z,98877.28
2022-11-29T08:00:53.217Z,98875.41
2022-11-29T08:04:15.598Z,98876.16
2022-11-29T08:06:45.234Z,98876.25
2022-11-29T08:09:13.733Z,98878.31
2022-11-29T08:11:42.419Z,98875.78
2022-11-29T08:14:10.289Z,98883.75
2022-11-29T08:16:38.666Z,98884.78
2022-11-29T08:19:06.436Z,98884.00
2022-11-29T08:21:34.492Z,98885.69
2022-11-29T08:24:01.802Z,98884.03
2022-11-29T08:26:31.829Z,98882.19
2022-11-29T08:29:25.587Z,98881.34
2022-11-29T08:32:18.423Z,98892.47
2022-11-29T08:34:45.737Z,98879.63
2022-11-29T08:37:14.230Z,98874.34
2022-11-29T08:39:41.720Z,98881.00
2022-11-29T08:42:09.863Z,98885.16
2022-11-29T08:45:09.768Z,98887.66
2022-11-29T08:47:38.817Z,98881.56
2022-11-29T08:50:14.793Z,98876.56
2022-11-29T08:53:08.544Z,98886.94
2022-11-29T08:55:42.953Z,98885.91
2022-11-29T08:58:16.877Z,98888.72
2022-11-29T09:00:47.111Z,98894.72
2022-11-29T09:03:51.255Z,98894.13
2022-11-29T09:06:18.559Z,98900.75
2022-11-29T09:09:36.865Z,98909.28
2022-11-29T09:12:14.429Z,98910.91
2022-11-29T09:14:42.985Z,98908.16
2022-11-29T09:17:10.813Z,98916.03
2022-11-29T09:19:39.468Z,98908.06
2022-11-29T09:22:07.733Z,98915.94
2022-11-29T09:24:36.948Z,98913.09
2022-11-29T09:27:06.630Z,98912.22
2022-11-29T09:29:35.742Z,98912.25
2022-11-29T09:32:04.035Z,98921.72
2022-11-29T09:34:31.368Z,98909.66
2022-11-29T09:36:59.133Z,98915.78
2022-11-29T09:39:26.570Z,98914.78
2022-11-29T09:42:50.959Z,98920.13
2022-11-29T09:45:32.519Z,98917.78
2022-11-29T09:48:33.617Z,98920.06
2022-11-29T09:51:39.825Z,98922.03
2022-11-29T09:55:05.600Z,98924.28
2022-11-29T09:57:33.600Z,98924.97
2022-11-29T10:00:07.784Z,98918.63
2022-11-29T10:02:48.966Z,98929.25
2022-11-29T10:05:24.771Z,98927.25
2022-11-29T10:08:22.279Z,98930.56
2022-11-29T10:11:02.458Z,98931.41
2022-11-29T10:13:36.363Z,98925.44
2022-11-29T10:16:19.767Z,98934.44
2022-11-29T10:19:08.332Z,98928.16
2022-11-29T10:21:43.692Z,98928.81
2022-11-29T10:24:20.539Z,98928.75
2022-11-29T10:26:47.516Z,98927.97
2022-11-29T10:29:16.979Z,98927.16
2022-11-29T10:31:49.689Z,98926.19
2022-11-29T10:34:22.761Z,98921.72
2022-11-29T10:37:01.494Z,98925.56
2022-11-29T10:39:57.312Z,98923.50
2022-11-29T10:42:45.924Z,98915.66
2022-11-29T10:45:27.959Z,98915.94
2022-11-29T10:48:04.130Z,98917.84
2022-11-29T10:50:40.397Z,98912.50
2022-11-29T10:53:20.284Z,98907.38
2022-11-29T10:56:05.785Z,98916.94
2022-11-29T10:58:33.668Z,98912.47
2022-11-29T11:01:08.553Z,98910.09
2022-11-29T11:03:53.056Z,98915.47
2022-11-29T11:06:44.257Z,98914.47
2022-11-29T11:09:41.735Z,98915.16
2022-11-29T11:12:16.084Z,98918.53
2022-11-29T11:14:45.221Z,98913.41
2022-11-29T11:17:32.782Z,98918.47
2022-11-29T11:20:18.915Z,98914.75
2022-11-29T11:22:59.885Z,98911.19
2022-11-29T11:25:32.293Z,98911.00
2022-11-29T11:28:21.524Z,98910.25
2022-11-29T11:31:00.781Z,98908.41
2022-11-29T11:33:37.033Z,98911.00
2022-11-29T11:36:27.386Z,98909.50
2022-11-29T11:39:12.104Z,98912.78
2022-11-29T11:42:02.411Z,98911.00
2022-11-29T11:44:52.622Z,98908.50
2022-11-29T11:47:27.943Z,98920.59
2022-11-29T11:50:41.180Z,98918.84
2022-11-29T11:53:30.534Z,98924.88
2022-11-29T11:56:03.016Z,98923.13
2022-11-29T12:01:41.813Z,98925.03
2022-11-29T12:04:47.564Z,98928.69
2022-11-29T12:08:15.897Z,98929.41
2022-11-29T12:10:55.505Z,98924.00
2022-11-29T12:13:48.664Z,98929.16
2022-11-29T12:16:38.915Z,98929.81
2022-11-29T12:19:21.864Z,98933.16
2022-11-29T12:21:59.689Z,98931.41
2022-11-29T12:25:21.534Z,98933.25
2022-11-29T12:27:51.938Z,98930.28
2022-11-29T12:30:20.661Z,98929.31
2022-11-29T12:32:59.977Z,98930.94
2022-11-29T12:35:42.039Z,98930.78
2022-11-29T12:38:32.188Z,98930.59
2022-11-29T12:41:25.531Z,98942.81
2022-11-29T12:44:20.074Z,98935.69
2022-11-29T12:48:18.102Z,98941.72
2022-11-29T12:51:14.474Z,98939.06
2022-11-29T12:53:54.201Z,98943.41
2022-11-29T12:56:50.916Z,98941.59
2022-11-29T13:00:08.441Z,98949.00
2022-11-29T13:03:59.419Z,98948.13
2022-11-29T13:07:02.961Z,98946.16
2022-11-29T13:10:18.108Z,98948.13
2022-11-29T13:13:17.486Z,98956.69
2022-11-29T13:16:07.588Z,98962.78
2022-11-29T13:19:07.774Z,98958.56
2022-11-29T13:21:58.194Z,98952.28
2022-11-29T13:24:50.819Z,98957.47
2022-11-29T13:27:35.365Z,98960.81
2022-11-29T13:30:15.692Z,98956.38
2022-11-29T13:33:16.588Z,98959.09
2022-11-29T13:36:08.709Z,98963.47
2022-11-29T13:39:12.086Z,98967.84
2022-11-29T13:42:16.101Z,98966.91
2022-11-29T13:44:47.351Z,98967.84
2022-11-29T13:47:23.753Z,98973.47
2022-11-29T13:50:03.629Z,98975.59
2022-11-29T13:53:15.472Z,98978.81
2022-11-29T13:56:26.565Z,98982.31
2022-11-29T13:58:55.133Z,98979.69
2022-11-29T14:01:27.233Z,98983.25
2022-11-29T14:04:47.904Z,98984.47
2022-11-29T14:07:19.834Z,98984.34
2022-11-29T14:10:33.023Z,98984.34
2022-11-29T14:13:01.933Z,98985.16
2022-11-29T14:16:14.986Z,98984.16
2022-11-29T14:18:44.722Z,98976.28
2022-11-29T14:22:08.793Z,98992.94
2022-11-29T14:24:52.210Z,98984.97
2022-11-29T14:27:59.443Z,98985.69
2022-11-29T14:31:02.227Z,98987.38
2022-11-29T14:34:09.117Z,98988.25
2022-11-29T14:37:23.765Z,98983.22
2022-11-29T14:40:18.980Z,98984.00
2022-11-29T14:44:10.445Z,98996.09
2022-11-29T14:46:37.445Z,98989.25
2022-11-29T14:49:05.570Z,98991.19
2022-11-29T14:51:34.937Z,98994.56
2022-11-29T14:54:13.173Z,98993.84
2022-11-29T14:56:46.340Z,98993.81
2022-11-29T14:59:53.214Z,99000.75
2022-11-29T15:06:03.987Z,99000.69
2022-11-29T15:08:44.085Z,98996.41
2022-11-29T15:12:51.482Z,98995.44
2022-11-29T15:15:42.089Z,98994.63
2022-11-29T15:18:22.610Z,98992.81
2022-11-29T15:21:16.852Z,98996.47
2022-11-29T15:23:44.915Z,98999.03
2022-11-29T15:26:21.228Z,99002.47
2022-11-29T15:28:48.460Z,99009.28
2022-11-29T15:31:24.536Z,99009.22
2022-11-29T15:33:54.240Z,99013.19
2022-11-29T15:36:25.846Z,99009.50
2022-11-29T15:39:52.738Z,99020.91
2022-11-29T15:42:19.591Z,99023.69
2022-11-29T15:45:08.293Z,99030.09
2022-11-29T15:50:33.499Z,99022.41
2022-11-29T15:53:13.976Z,99031.09
2022-11-29T15:55:45.005Z,99028.53
2022-11-29T15:58:15.438Z,99025.88
2022-11-29T16:00:49.802Z,99037.94
2022-11-29T16:03:36.300Z,99026.63
2022-11-29T16:06:29.962Z,99032.75
2022-11-29T16:09:34.144Z,99033.59
2022-11-29T16:12:03.178Z,99034.38
2022-11-29T16:14:30.934Z,99034.59
2022-11-29T16:17:11.935Z,99039.03
2022-11-29T16:20:09.806Z,99035.56
2022-11-29T16:22:43.620Z,99048.53
2022-11-29T16:26:07.051Z,99045.81
2022-11-29T16:29:20.405Z,99052.66
2022-11-29T16:32:00.587Z,99054.69
2022-11-29T16:34:36.107Z,99052.13
2022-11-29T16:37:23.040Z,99059.22
2022-11-29T16:40:23.794Z,99068.75
2022-11-29T16:43:43.660Z,99066.91
2022-11-29T16:46:22.586Z,99065.25
2022-11-29T16:48:54.551Z,99060.81
2022-11-29T16:51:47.708Z,99065.34
2022-11-29T16:54:21.633Z,99064.31
2022-11-29T16:57:43.662Z,99063.38
2022-11-29T17:00:29.044Z,99060.19
2022-11-29T17:02:56.635Z,99063.38
2022-11-29T17:05:23.750Z,99071.13
2022-11-29T17:08:14.030Z,99073.56
2022-11-29T17:10:43.894Z,99075.28
2022-11-29T17:13:11.933Z,99078.66
2022-11-29T17:15:50.327Z,99081.38
2022-11-29T17:18:46.891Z,99080.47
2022-11-29T17:21:37.901Z,99084.97
2022-11-29T17:24:17.647Z,99083.28
2022-11-29T17:26:46.230Z,99078.81
2022-11-29T17:29:20.693Z,99077.91
2022-11-29T17:31:50.475Z,99082.16
2022-11-29T17:34:18.092Z,99077.78
2022-11-29T17:36:45.325Z,99086.50
2022-11-29T17:39:12.751Z,99093.31
2022-11-29T17:41:39.568Z,99092.47
2022-11-29T17:44:06.587Z,99098.56
2022-11-29T17:46:36.876Z,99094.13
2022-11-29T17:49:12.093Z,99101.19
2022-11-29T17:51:51.560Z,99099.72
2022-11-29T17:54:23.355Z,99101.38
2022-11-29T17:56:51.986Z,99106.53
2022-11-29T17:59:32.267Z,99111.69
2022-11-29T18:02:15.579Z,99100.38
2022-11-29T18:05:13.801Z,99104.63
2022-11-29T18:08:00.911Z,99103.06
2022-11-29T18:10:31.995Z,99109.31
2022-11-29T18:12:58.958Z,99111.00
2022-11-29T18:16:11.278Z,99108.38
2022-11-29T18:18:40.464Z,99108.31
2022-11-29T18:21:12.318Z,99107.47
2022-11-29T18:24:09.287Z,99104.09
2022-11-29T18:26:48.623Z,99106.63
2022-11-29T18:29:18.747Z,99108.41
2022-11-29T18:32:28.074Z,99118.97
2022-11-29T18:35:02.398Z,99122.56
2022-11-29T18:38:05.049Z,99121.69
2022-11-29T18:40:20.451Z,99127.84
2022-11-29T18:42:49.459Z,99125.38
2022-11-29T18:45:38.489Z,99127.88
2022-11-29T18:48:06.906Z,99127.97
2022-11-29T18:50:49.012Z,99129.59
2022-11-29T18:53:36.645Z,99121.66
2022-11-29T18:56:12.561Z,99123.38
2022-11-29T18:58:40.428Z,99127.69
2022-11-29T19:01:34.518Z,99129.41
2022-11-29T19:04:15.476Z,99122.72
2022-11-29T19:06:43.868Z,99124.41
2022-11-29T19:09:57.391Z,99121.78
2022-11-29T19:12:24.938Z,99117.31
2022-11-29T19:15:03.898Z,99117.38
2022-11-29T19:17:45.679Z,99128.84
2022-11-29T19:20:28.544Z,99133.41
2022-11-29T19:23:00.313Z,99131.59
2022-11-29T19:25:28.991Z,99131.53
2022-11-29T19:27:57.622Z,99130.53
2022-11-29T19:30:28.590Z,99139.25
2022-11-29T19:32:56.026Z,99142.72
2022-11-29T19:35:22.923Z,99140.19
2022-11-29T19:37:50.108Z,99148.00
2022-11-29T19:40:17.397Z,99143.53
2022-11-29T19:42:49.234Z,99147.25
2022-11-29T19:45:19.433Z,99142.81
2022-11-29T19:47:54.774Z,99146.41
2022-11-29T19:50:52.348Z,99144.66
2022-11-29T19:53:36.460Z,99153.31
2022-11-29T19:57:03.191Z,99156.97
2022-11-29T19:59:33.908Z,99157.72
2022-11-29T20:02:06.374Z,99154.63
2022-11-29T20:05:17.766Z,99162.34
2022-11-29T20:07:44.899Z,99163.22
2022-11-29T20:10:12.427Z,99164.06
2022-11-29T20:13:29.776Z,99167.47
2022-11-29T20:16:08.598Z,99169.03
2022-11-29T20:18:39.420Z,99175.22
2022-11-29T20:21:13.124Z,99180.41
2022-11-29T20:23:45.243Z,99173.44
2022-11-29T20:26:23.779Z,99181.25
2022-11-29T20:28:51.328Z,99181.38
2022-11-29T20:31:23.214Z,99188.72
2022-11-29T20:33:58.395Z,99180.00
2022-11-29T20:37:02.313Z,99182.53
2022-11-29T20:39:32.333Z,99186.81
2022-11-29T20:42:29.972Z,99184.16
2022-11-29T20:45:06.545Z,99189.31
2022-11-29T20:48:18.168Z,99183.09
2022-11-29T20:51:02.375Z,99187.41
2022-11-29T20:53:52.454Z,99193.50
2022-11-29T20:56:19.341Z,99189.06
2022-11-29T20:58:46.525Z,99190.78
2022-11-29T21:01:13.615Z,99189.00
2022-11-29T21:03:40.849Z,99191.53
2022-11-29T21:06:08.002Z,99188.06
2022-11-29T21:08:35.477Z,99202.16
2022-11-29T21:11:26.418Z,99195.25
2022-11-29T21:13:54.856Z,99196.16
2022-11-29T21:16:31.708Z,99203.00
2022-11-29T21:19:11.197Z,99201.84
2022-11-29T21:22:04.672Z,99189.53
2022-11-29T21:24:46.890Z,99196.41
2022-11-29T21:27:38.754Z,99200.59
2022-11-29T21:30:55.578Z,99199.66
2022-11-29T21:33:52.065Z,99203.19
2022-11-29T21:36:26.802Z,99198.28
2022-11-29T21:38:55.417Z,99195.69
2022-11-29T21:41:36.444Z,99193.88
2022-11-29T21:44:07.749Z,99203.59
2022-11-29T21:46:37.008Z,99204.44
2022-11-29T21:49:06.041Z,99201.00
2022-11-29T21:51:39.838Z,99203.66
2022-11-29T21:54:06.851Z,99201.97
2022-11-29T21:56:34.294Z,99209.84
2022-11-29T21:59:01.265Z,99202.97
2022-11-29T22:01:29.480Z,99212.44
2022-11-29T22:03:56.888Z,99215.84
2022-11-29T22:06:26.100Z,99211.38
2022-11-29T22:09:04.409Z,99211.34
2022-11-29T22:11:31.919Z,99209.59
2022-11-29T22:14:13.924Z,99205.13
2022-11-29T22:17:01.486Z,99196.44
2022-11-29T22:19:38.272Z,99202.50
2022-11-29T22:22:10.901Z,99207.84
2022-11-29T22:24:38.426Z,99203.56
2022-11-29T22:27:05.643Z,99211.44
2022-11-29T22:29:32.601Z,99201.03
2022-11-29T22:32:01.175Z,99208.03
2022-11-29T22:34:28.534Z,99211.59
2022-11-29T22:36:56.544Z,99215.09
2022-11-29T22:39:24.214Z,99208.00
2022-11-29T22:41:54.556Z,99208.78
2022-11-29T22:44:30.207Z,99210.63
2022-11-29T22:46:57.257Z,99204.56
2022-11-29T22:49:24.251Z,99201.84
2022-11-29T22:51:52.430Z,99208.81
2022-11-29T22:54:20.285Z,99209.66
2022-11-29T22:56:47.843Z,99211.38
2022-11-29T22:59:14.875Z,99213.06
2022-11-29T23:01:43.103Z,99212.28
2022-11-29T23:04:12.234Z,99219.19
2022-11-29T23:06:48.529Z,99213.06
2022-11-29T23:09:55.807Z,99214.00
2022-11-29T23:12:22.983Z,99213.97
2022-11-29T23:14:55.828Z,99208.75
2022-11-29T23:17:27.785Z,99209.66
2022-11-29T23:19:55.336Z,99210.56
2022-11-29T23:22:23.049Z,99211.38
2022-11-29T23:24:50.370Z,99213.97
2022-11-29T23:27:18.134Z,99217.41
2022-11-29T23:29:45.519Z,99203.38
2022-11-29T23:32:15.817Z,99206.84
2022-11-29T23:34:42.690Z,99204.16
2022-11-29T23:37:09.841Z,99211.19
2022-11-29T23:39:50.672Z,99207.78
2022-11-29T23:42:17.923Z,99210.53
2022-11-29T23:44:45.123Z,99201.78
2022-11-29T23:47:12.466Z,99208.75
2022-11-29T23:49:39.954Z,99208.69
2022-11-29T23:52:07.178Z,99199.97
2022-11-29T23:54:34.133Z,99213.97
2022-11-29T23:57:01.276Z,99207.97
2022-11-29T23:59:28.413Z,99199.31
